Time;durP1;ratioP1;P1;durP2;ratioP2;P2;SDS_P1;SDS_P2;PMS_P1;PMS_P2;Temp;Humidity;BMP_temperature;BMP_pressure;BME280_temperature;BME280_humidity;BME280_pressure;Samples;Min_cycle;Max_cycle;Signal;HPM_P1;HPM_P2
2022/08/20 00:00:29;;;;;;;;;;;;;;;20.45;89.55;101311.22;3583210;40;19928;-62
2022/08/20 00:03:01;;;;;;;;;;;;;;;20.44;89.54;101314.97;3582739;40;19951;-61
2022/08/20 00:05:40;;;;;;;;;;;;;;;20.47;89.69;101308.34;3584846;40;20286;-60
2022/08/20 00:08:08;;;;;;;;;;;;;;;20.45;89.88;101313.94;3587135;40;19980;-60
2022/08/20 00:10:37;;;;;;;;;;;;;;;20.09;89.51;101248.22;3584741;40;19943;-60
2022/08/20 00:13:06;;;;;;;;;;;;;;;20.46;89.09;101298.44;3585791;40;19939;-60
2022/08/20 00:15:35;;;;;;;;;;;;;;;20.44;89.67;101301.31;3586066;40;20228;-60
2022/08/20 00:18:02;;;;;;;;;;;;;;;20.41;90.01;101297.00;3583403;40;19967;-61
2022/08/20 00:20:33;;;;;;;;;;;;;;;20.25;89.67;101261.25;3582318;40;20254;-60
2022/08/20 00:23:00;;;;;;;;;;;;;;;20.44;90.00;101287.66;3582948;40;19995;-61
2022/08/20 00:25:27;;;;;;;;;;;;;;;20.43;89.78;101288.66;3581708;40;19935;-60
2022/08/20 00:27:54;;;;;;;;;;;;;;;20.41;88.93;101294.25;3584323;40;20170;-60
2022/08/20 00:30:21;;;;;;;;;;;;;;;20.39;89.70;101299.03;3584944;40;19928;-61
2022/08/20 00:32:52;;;;;;;;;;;;;;;20.17;89.99;101261.09;3582088;40;19938;-60
2022/08/20 00:35:20;;;;;;;;;;;;;;;20.39;89.72;101304.50;3584852;40;19939;-61
2022/08/20 00:37:46;;;;;;;;;;;;;;;20.11;90.10;101257.13;3583787;40;20297;-61
2022/08/20 00:40:15;;;;;;;;;;;;;;;20.38;89.55;101296.44;3586496;40;19932;-61
2022/08/20 00:42:45;;;;;;;;;;;;;;;20.35;90.00;101297.56;3589323;40;20207;-60
2022/08/20 00:45:11;;;;;;;;;;;;;;;20.37;90.21;101300.19;3585564;40;20013;-60
2022/08/20 00:47:40;;;;;;;;;;;;;;;20.39;90.30;101300.88;3586002;40;19936;-60
2022/08/20 00:50:07;;;;;;;;;;;;;;;20.41;90.12;101304.31;3585885;40;20021;-61
2022/08/20 00:52:33;;;;;;;;;;;;;;;20.33;89.91;101285.06;3586739;40;20321;-61
2022/08/20 00:55:00;;;;;;;;;;;;;;;20.39;90.15;101299.03;3583620;40;20203;-60
2022/08/20 00:57:36;;;;;;;;;;;;;;;20.37;90.13;101298.31;3586569;40;19932;-60
2022/08/20 01:00:09;;;;;;;;;;;;;;;20.36;89.80;101299.31;3584624;40;20469;-60
2022/08/20 01:02:35;;;;;;;;;;;;;;;20.31;90.18;101312.53;3584646;40;19943;-60
2022/08/20 01:05:01;;;;;;;;;;;;;;;20.29;90.14;101302.78;3585449;40;19936;-61
2022/08/20 01:07:32;;;;;;;;;;;;;;;20.30;90.26;101299.91;3584321;40;19955;-61
2022/08/20 01:10:01;;;;;;;;;;;;;;;20.21;89.70;101289.00;3584597;40;19984;-60
2022/08/20 01:12:29;;;;;;;;;;;;;;;20.25;89.62;101301.34;3583765;40;20005;-61
2022/08/20 01:14:57;;;;;;;;;;;;;;;20.29;89.67;101305.50;3584366;40;19948;-61
2022/08/20 01:17:26;;;;;;;;;;;;;;;20.31;89.97;101300.75;3586951;40;19928;-61
2022/08/20 01:19:58;;;;;;;;;;;;;;;20.26;90.06;101300.31;3584285;40;20442;-60
2022/08/20 01:25:49;;;;;;;;;;;;;;;20.31;90.10;101295.31;3588051;40;20311;-61
2022/08/20 01:28:21;;;;;;;;;;;;;;;20.29;89.63;101297.31;3586400;40;19939;-61
2022/08/20 01:30:47;;;;;;;;;;;;;;;20.29;90.03;101302.78;3585048;40;19940;-60
2022/08/20 01:33:12;;;;;;;;;;;;;;;20.27;89.97;101313.84;3585826;40;19979;-61
2022/08/20 01:35:41;;;;;;;;;;;;;;;20.26;90.20;101308.53;3584329;40;20577;-60
2022/08/20 01:38:07;;;;;;;;;;;;;;;20.24;90.40;101299.63;3585672;40;19969;-61
2022/08/20 01:40:56;;;;;;;;;;;;;;;20.24;89.95;101299.63;3582892;40;19966;-61
2022/08/20 01:43:22;;;;;;;;;;;;;;;20.20;90.15;101292.72;3585790;40;19940;-61
2022/08/20 01:45:49;;;;;;;;;;;;;;;20.22;89.89;101301.63;3583907;40;21427;-61
2022/08/20 01:48:17;;;;;;;;;;;;;;;20.20;89.67;101298.19;3584675;40;19995;-61
2022/08/20 01:50:54;;;;;;;;;;;;;;;20.18;90.00;101301.94;3585220;40;19928;-61
2022/08/20 01:53:28;;;;;;;;;;;;;;;20.15;90.53;101299.50;3583392;40;19942;-61
2022/08/20 01:55:54;;;;;;;;;;;;;;;20.16;90.07;101303.06;3583504;40;19932;-60
2022/08/20 01:58:19;;;;;;;;;;;;;;;20.12;90.13;101309.84;3585042;40;19942;-60
2022/08/20 02:00:45;;;;;;;;;;;;;;;20.10;90.33;101309.13;3584839;40;19935;-61
2022/08/20 02:03:11;;;;;;;;;;;;;;;20.05;90.33;101304.09;3585157;40;19939;-61
2022/08/20 02:05:36;;;;;;;;;;;;;;;19.36;90.10;101184.22;3583829;40;19944;-61
2022/08/20 02:08:03;;;;;;;;;;;;;;;19.91;90.39;101278.09;3584386;40;19947;-61
2022/08/20 02:10:30;;;;;;;;;;;;;;;20.08;90.61;101306.53;3583686;40;19928;-60
2022/08/20 02:12:57;;;;;;;;;;;;;;;20.03;90.51;101302.53;3583874;40;19950;-60
2022/08/20 02:15:23;;;;;;;;;;;;;;;20.06;90.44;101305.81;3584218;40;20004;-61
2022/08/20 02:17:48;;;;;;;;;;;;;;;20.04;90.23;101299.63;3586150;40;19928;-60
2022/08/20 02:20:23;;;;;;;;;;;;;;;20.04;90.29;101307.81;3584118;40;19950;-61
2022/08/20 02:22:58;;;;;;;;;;;;;;;20.01;90.68;101305.38;3583121;40;19956;-60
2022/08/20 02:25:29;;;;;;;;;;;;;;;20.00;90.28;101311.84;3586175;40;19948;-61
2022/08/20 02:27:56;;;;;;;;;;;;;;;20.00;90.73;101308.25;3586549;40;20189;-61
2022/08/20 02:30:29;;;;;;;;;;;;;;;19.99;89.98;101307.41;3585538;40;19932;-61
2022/08/20 02:32:59;;;;;;;;;;;;;;;19.99;90.18;101301.94;3585709;40;19972;-61
2022/08/20 02:35:24;;;;;;;;;;;;;;;;;;3584164;40;19939;-60
2022/08/20 02:37:50;;;;;;;;;;;;;;;19.87;89.55;101289.47;3585792;40;19943;-61
2022/08/20 02:40:19;;;;;;;;;;;;;;;19.90;89.48;101306.41;3583765;40;19939;-60
2022/08/20 02:42:45;;;;;;;;;;;;;;;19.89;89.76;101309.28;3585085;40;19935;-61
2022/08/20 02:45:14;;;;;;;;;;;;;;;19.89;89.73;101312.88;3585157;40;19943;-61
2022/08/20 02:47:43;;;;;;;;;;;;;;;19.89;89.47;101323.78;3586178;40;20350;-60
2022/08/20 02:50:14;;;;;;;;;;;;;;;19.85;89.22;101322.34;3585499;40;19944;-61
2022/08/20 02:52:40;;;;;;;;;;;;;;;19.85;89.66;101326.94;3585561;40;19928;-61
2022/08/20 02:55:07;;;;;;;;;;;;;;;19.82;89.61;101319.03;3585817;40;19979;-61
2022/08/20 02:57:32;;;;;;;;;;;;;;;19.40;89.59;101251.06;3586804;40;21072;-61
2022/08/20 02:59:58;;;;;;;;;;;;;;;19.81;89.88;101320.91;3585421;40;19947;-61
2022/08/20 03:02:23;;;;;;;;;;;;;;;19.77;89.49;101318.59;3586181;40;19936;-61
2022/08/20 03:04:49;;;;;;;;;;;;;;;19.73;89.97;101317.16;3586490;40;19940;-62
2022/08/20 03:07:14;;;;;;;;;;;;;;;19.74;89.62;101319.75;3587057;40;19935;-61
2022/08/20 03:09:40;;;;;;;;;;;;;;;19.73;89.30;101314.41;3586598;40;20198;-60
2022/08/20 03:12:07;;;;;;;;;;;;;;;19.68;89.40;101314.84;3584705;40;19940;-61
2022/08/20 03:14:33;;;;;;;;;;;;;;;19.67;89.55;101324.91;3586836;40;19944;-60
2022/08/20 03:16:58;;;;;;;;;;;;;;;19.70;89.28;101323.78;3586550;40;20226;-61
2022/08/20 03:19:24;;;;;;;;;;;;;;;19.65;89.11;101321.44;3585723;40;19943;-60
2022/08/20 03:21:50;;;;;;;;;;;;;;;19.59;88.37;101322.00;3585006;40;19940;-61
2022/08/20 03:24:15;;;;;;;;;;;;;;;19.58;88.23;101320.28;3585415;40;19959;-60
2022/08/20 03:26:41;;;;;;;;;;;;;;;19.55;88.44;101320.56;3585083;40;19936;-60
2022/08/20 03:29:07;;;;;;;;;;;;;;;19.56;88.06;101325.00;3584107;40;19947;-60
2022/08/20 03:31:32;;;;;;;;;;;;;;;19.53;87.94;101321.69;3585320;40;20192;-61
2022/08/20 03:33:58;;;;;;;;;;;;;;;19.40;87.63;101306.44;3584430;40;19942;-60
2022/08/20 03:36:26;;;;;;;;;;;;;;;19.47;87.17;101329.44;3583087;40;19940;-61
2022/08/20 03:38:51;;;;;;;;;;;;;;;19.43;87.73;101338.03;3585716;40;19938;-60
2022/08/20 03:41:17;;;;;;;;;;;;;;;19.39;87.61;101348.38;3585985;40;19948;-60
2022/08/20 03:43:44;;;;;;;;;;;;;;;19.34;87.82;101338.88;3585560;40;19932;-61
2022/08/20 03:46:09;;;;;;;;;;;;;;;19.35;87.05;101340.63;3585016;40;19932;-61
2022/08/20 03:48:35;;;;;;;;;;;;;;;19.21;87.54;101322.75;3585433;39;20361;-61
2022/08/20 03:51:01;;;;;;;;;;;;;;;19.30;87.38;101337.44;3586717;40;19935;-61
2022/08/20 03:53:30;;;;;;;;;;;;;;;19.29;88.04;101336.56;3583909;40;19936;-61
2022/08/20 03:55:59;;;;;;;;;;;;;;;19.17;87.73;101322.19;3586579;40;19934;-61
2022/08/20 03:58:27;;;;;;;;;;;;;;;19.29;87.48;101341.16;3585462;40;20260;-60
2022/08/20 04:00:54;;;;;;;;;;;;;;;19.27;87.33;101344.03;3585514;40;19932;-61
2022/08/20 04:03:21;;;;;;;;;;;;;;;19.15;87.43;101335.06;3583855;40;19943;-61
2022/08/20 04:05:48;;;;;;;;;;;;;;;19.08;87.79;101320.28;3584955;40;19939;-61
2022/08/20 04:08:19;;;;;;;;;;;;;;;19.16;87.77;101335.97;3582865;40;20278;-61
2022/08/20 04:10:46;;;;;;;;;;;;;;;19.20;88.31;101345.56;3582724;40;20267;-61
2022/08/20 04:13:14;;;;;;;;;;;;;;;19.21;87.71;101350.88;3584382;40;19954;-61
2022/08/20 04:15:40;;;;;;;;;;;;;;;19.23;87.78;101350.75;3585872;40;19946;-61
2022/08/20 04:18:07;;;;;;;;;;;;;;;19.23;88.12;101348.88;3587465;40;20316;-61
2022/08/20 04:20:36;;;;;;;;;;;;;;;19.22;88.24;101349.91;3587014;40;19947;-60
2022/08/20 04:23:03;;;;;;;;;;;;;;;19.22;88.05;101352.63;3585766;40;19932;-61
2022/08/20 04:25:32;;;;;;;;;;;;;;;19.22;87.51;101355.34;3586685;40;19932;-61
2022/08/20 04:28:01;;;;;;;;;;;;;;;19.12;88.63;101338.06;3586892;40;19982;-60
2022/08/20 04:30:28;;;;;;;;;;;;;;;19.24;88.22;101356.06;3584313;40;19946;-60
2022/08/20 04:32:54;;;;;;;;;;;;;;;19.28;88.81;101353.91;3584725;40;19970;-60
2022/08/20 04:35:23;;;;;;;;;;;;;;;19.33;88.71;101359.81;3585942;40;19929;-60
2022/08/20 04:38:00;;;;;;;;;;;;;;;19.35;87.38;101374.19;3585847;40;20260;-60
2022/08/20 04:43:11;;;;;;;;;;;;;;;19.28;86.89;101373.00;3585658;40;19946;-60
2022/08/20 04:45:37;;;;;;;;;;;;;;;19.30;87.08;101373.72;3584321;40;20225;-60
2022/08/20 04:48:05;;;;;;;;;;;;;;;19.29;87.37;101373.88;3584910;40;19936;-60
2022/08/20 04:50:37;;;;;;;;;;;;;;;19.28;86.61;101373.00;3588347;40;19997;-60
2022/08/20 04:53:06;;;;;;;;;;;;;;;19.10;86.33;101351.00;3588114;40;19947;-60
2022/08/20 04:55:33;;;;;;;;;;;;;;;18.99;86.33;101330.13;3583976;40;19986;-60
2022/08/20 04:58:06;;;;;;;;;;;;;;;19.25;86.48;101385.06;3590514;40;19940;-60
2022/08/20 05:00:33;;;;;;;;;;;;;;;19.24;86.15;101382.47;3586835;40;20357;-60
2022/08/20 05:02:58;;;;;;;;;;;;;;;19.17;86.09;101384.88;3583833;39;19986;-60
2022/08/20 05:05:25;;;;;;;;;;;;;;;19.17;86.92;101390.31;3586471;40;19932;-60
2022/08/20 05:07:51;;;;;;;;;;;;;;;19.15;86.18;101400.47;3587180;40;19935;-60
2022/08/20 05:10:18;;;;;;;;;;;;;;;19.17;86.29;101397.63;3584188;40;19981;-60
2022/08/20 05:12:45;;;;;;;;;;;;;;;19.17;86.52;101395.78;3585033;40;19940;-60
2022/08/20 05:15:11;;;;;;;;;;;;;;;19.14;86.27;101393.31;3585422;40;19932;-60
2022/08/20 05:17:39;;;;;;;;;;;;;;;19.19;86.05;101401.97;3585682;40;20257;-60
2022/08/20 05:20:08;;;;;;;;;;;;;;;19.18;86.37;101399.34;3587493;40;19962;-60
2022/08/20 05:22:34;;;;;;;;;;;;;;;19.18;86.30;101397.50;3585883;40;19942;-60
2022/08/20 05:25:00;;;;;;;;;;;;;;;19.12;86.29;101392.59;3587946;40;19944;-60
2022/08/20 05:27:27;;;;;;;;;;;;;;;19.11;86.44;101404.50;3585049;40;20201;-60
2022/08/20 05:29:59;;;;;;;;;;;;;;;19.09;86.77;101403.75;3584995;40;20269;-60
2022/08/20 05:32:26;;;;;;;;;;;;;;;19.01;86.29;101398.13;3586309;40;19940;-59
2022/08/20 05:34:53;;;;;;;;;;;;;;;19.04;86.98;101407.91;3583503;40;19940;-59
2022/08/20 05:37:19;;;;;;;;;;;;;;;19.06;86.88;101401.34;3585920;40;20262;-60
2022/08/20 05:39:44;;;;;;;;;;;;;;;19.08;86.79;101409.34;3585671;40;19944;-60
2022/08/20 05:42:10;;;;;;;;;;;;;;;19.07;86.44;101413.09;3584080;40;19942;-60
2022/08/20 05:44:36;;;;;;;;;;;;;;;19.08;86.45;101414.81;3585807;40;19950;-60
2022/08/20 05:47:03;;;;;;;;;;;;;;;19.04;86.79;101424.25;3585874;40;19928;-60
2022/08/20 05:49:29;;;;;;;;;;;;;;;19.08;87.00;101421.13;3584610;40;19958;-60
2022/08/20 05:51:55;;;;;;;;;;;;;;;19.09;86.86;101422.84;3585502;40;19932;-60
2022/08/20 05:54:22;;;;;;;;;;;;;;;19.09;86.11;101417.38;3583246;40;20744;-60
2022/08/20 05:56:48;;;;;;;;;;;;;;;19.11;86.64;101422.72;3586422;40;20040;-60
2022/08/20 05:59:14;;;;;;;;;;;;;;;19.12;85.76;101421.69;3582406;40;20268;-61
2022/08/20 06:01:41;;;;;;;;;;;;;;;19.02;85.99;101416.19;3586052;40;19932;-60
2022/08/20 06:04:23;;;;;;;;;;;;;;;18.94;86.62;101418.75;3583863;40;19951;-60
2022/08/20 06:06:55;;;;;;;;;;;;;;;18.94;86.52;101426.94;3585680;40;19928;-60
2022/08/20 06:09:23;;;;;;;;;;;;;;;19.05;87.02;101421.38;3588410;40;19940;-60
2022/08/20 06:11:49;;;;;;;;;;;;;;;19.14;87.27;101431.47;3586551;40;20068;-60
2022/08/20 06:14:19;;;;;;;;;;;;;;;19.17;86.76;101424.91;3585124;40;19939;-60
2022/08/20 06:16:45;;;;;;;;;;;;;;;19.19;87.08;101429.22;3585176;40;20538;-60
2022/08/20 06:19:11;;;;;;;;;;;;;;;19.23;87.05;101430.66;3586826;40;20266;-60
2022/08/20 06:21:38;;;;;;;;;;;;;;;19.13;86.27;101413.41;3587432;40;19972;-60
2022/08/20 06:24:05;;;;;;;;;;;;;;;19.19;86.12;101429.22;3586346;40;20002;-60
2022/08/20 06:26:33;;;;;;;;;;;;;;;19.19;86.52;101428.34;3587703;40;20221;-63
2022/08/20 06:28:59;;;;;;;;;;;;;;;19.21;86.42;101424.47;3586083;40;20020;-60
2022/08/20 06:31:26;;;;;;;;;;;;;;;19.27;86.69;101420.34;3583562;40;19940;-60
2022/08/20 06:33:51;;;;;;;;;;;;;;;19.35;86.95;101427.84;3583698;40;19936;-60
2022/08/20 06:36:17;;;;;;;;;;;;;;;19.41;86.73;101430.91;3582691;40;19936;-60
2022/08/20 06:38:44;;;;;;;;;;;;;;;19.47;85.82;101427.63;3584713;40;19936;-60
2022/08/20 06:41:09;;;;;;;;;;;;;;;19.48;85.41;101421.16;3585514;40;19991;-59
2022/08/20 06:43:35;;;;;;;;;;;;;;;19.56;85.22;101431.34;3583771;40;19940;-60
2022/08/20 06:46:01;;;;;;;;;;;;;;;19.61;85.47;101440.00;3583888;40;19943;-60
2022/08/20 06:48:26;;;;;;;;;;;;;;;19.57;84.98;101438.56;3584390;40;19942;-60
2022/08/20 06:50:52;;;;;;;;;;;;;;;19.60;85.39;101432.81;3585822;40;19935;-60
2022/08/20 06:53:19;;;;;;;;;;;;;;;19.62;85.03;101435.41;3583216;40;20226;-60
2022/08/20 06:55:53;;;;;;;;;;;;;;;19.66;85.37;101432.31;3584873;40;19952;-60
2022/08/20 06:58:19;;;;;;;;;;;;;;;19.69;85.47;101436.59;3583367;40;19936;-59
2022/08/20 07:00:46;;;;;;;;;;;;;;;19.57;84.51;101405.84;3583476;39;19944;-60
2022/08/20 07:03:15;;;;;;;;;;;;;;;19.71;85.20;101437.34;3582360;40;19939;-60
2022/08/20 07:05:43;;;;;;;;;;;;;;;19.71;84.68;101443.66;3583792;40;20204;-60
2022/08/20 07:08:12;;;;;;;;;;;;;;;19.73;84.44;101448.09;3582198;40;19938;-59
2022/08/20 07:10:41;;;;;;;;;;;;;;;19.77;84.98;101444.09;3584312;40;19944;-60
2022/08/20 07:13:08;;;;;;;;;;;;;;;19.78;84.52;101445.81;3584723;40;19981;-60
2022/08/20 07:15:33;;;;;;;;;;;;;;;19.80;84.64;101441.94;3583720;40;19932;-60
2022/08/20 07:18:03;;;;;;;;;;;;;;;19.83;84.60;101451.72;3584497;40;20258;-60
2022/08/20 07:20:31;;;;;;;;;;;;;;;19.65;84.67;101413.34;3585844;40;19954;-60
2022/08/20 07:22:57;;;;;;;;;;;;;;;19.84;83.84;101448.84;3584896;40;19974;-60
2022/08/20 07:25:23;;;;;;;;;;;;;;;19.79;84.32;101439.34;3583817;40;19927;-60
2022/08/20 07:27:50;;;;;;;;;;;;;;;19.90;84.74;101447.44;3584410;40;20283;-60
2022/08/20 07:33:05;;;;;;;;;;;;;;;19.99;83.06;101467.56;3584656;40;20188;-60
2022/08/20 07:35:30;;;;;;;;;;;;;;;19.63;83.85;101409.84;3582550;40;19943;-61
2022/08/20 07:37:56;;;;;;;;;;;;;;;19.99;83.89;101471.16;3583399;40;19939;-60
2022/08/20 07:40:29;;;;;;;;;;;;;;;20.04;83.66;101471.56;3583927;40;20261;-60
2022/08/20 07:42:59;;;;;;;;;;;;;;;20.06;83.43;101469.59;3586890;40;19932;-60
2022/08/20 07:45:26;;;;;;;;;;;;;;;20.09;83.27;101477.50;3584408;40;19927;-60
2022/08/20 07:47:52;;;;;;;;;;;;;;;20.23;83.62;101473.47;3583154;40;19928;-60
2022/08/20 07:50:21;;;;;;;;;;;;;;;20.08;82.49;101432.09;3583427;40;19936;-60
2022/08/20 07:52:47;;;;;;;;;;;;;;;20.47;82.09;101473.06;3587587;40;19936;-59
2022/08/20 07:55:15;;;;;;;;;;;;;;;20.73;82.34;101488.91;3584270;40;20281;-59
2022/08/20 07:57:42;;;;;;;;;;;;;;;20.85;80.76;101482.28;3583536;40;19936;-60
2022/08/20 08:00:10;;;;;;;;;;;;;;;20.70;79.26;101456.41;3583477;40;19962;-60
2022/08/20 08:02:38;;;;;;;;;;;;;;;21.08;78.79;101491.03;3583297;40;20001;-60
2022/08/20 08:05:05;;;;;;;;;;;;;;;21.40;79.21;101500.75;3583303;40;20290;-59
2022/08/20 08:07:32;;;;;;;;;;;;;;;21.64;77.43;101498.38;3582112;40;19973;-60
2022/08/20 08:10:01;;;;;;;;;;;;;;;21.74;76.00;101503.81;3582670;40;20333;-60
2022/08/20 08:12:35;;;;;;;;;;;;;;;21.69;75.75;101500.63;3582763;40;20021;-60
2022/08/20 08:15:03;;;;;;;;;;;;;;;21.82;74.89;101501.19;3582879;40;19947;-60
2022/08/20 08:17:30;;;;;;;;;;;;;;;22.03;74.94;101509.97;3585706;40;19939;-60
2022/08/20 08:19:57;;;;;;;;;;;;;;;22.21;73.97;101500.97;3584237;40;19932;-60
2022/08/20 08:22:23;;;;;;;;;;;;;;;22.48;71.72;101503.66;3583925;40;19959;-60
2022/08/20 08:24:48;;;;;;;;;;;;;;;22.71;71.03;101505.94;3583960;40;20263;-60
2022/08/20 08:27:17;;;;;;;;;;;;;;;22.84;69.34;101509.13;3583119;40;19940;-60
2022/08/20 08:29:44;;;;;;;;;;;;;;;22.74;68.58;101505.63;3582981;40;19928;-60
2022/08/20 08:32:10;;;;;;;;;;;;;;;22.52;69.54;101512.44;3583474;40;19943;-60
2022/08/20 08:34:36;;;;;;;;;;;;;;;22.40;69.78;101484.41;3581252;40;20301;-60
2022/08/20 08:37:04;;;;;;;;;;;;;;;22.75;70.06;101501.84;3585215;40;20189;-60
2022/08/20 08:39:31;;;;;;;;;;;;;;;22.99;66.81;101501.22;3583289;40;19944;-60
2022/08/20 08:41:59;;;;;;;;;;;;;;;23.31;66.02;101505.22;3585027;40;19968;-60
2022/08/20 08:44:40;;;;;;;;;;;;;;;23.17;64.78;101495.69;3582748;40;19944;-60
2022/08/20 08:47:24;;;;;;;;;;;;;;;23.04;63.36;101512.56;3584098;40;19928;-60
2022/08/20 08:49:50;;;;;;;;;;;;;;;22.82;62.80;101510.31;3585401;40;19954;-60
2022/08/20 08:52:32;;;;;;;;;;;;;;;23.05;65.21;101521.66;3582638;40;20266;-60
2022/08/20 08:55:02;;;;;;;;;;;;;;;23.44;64.68;101524.88;3583533;40;20057;-60
2022/08/20 08:57:27;;;;;;;;;;;;;;;23.84;62.47;101528.88;3582424;40;19943;-60
2022/08/20 09:00:04;;;;;;;;;;;;;;;24.13;61.08;101528.47;3583500;40;20563;-60
2022/08/20 09:02:31;;;;;;;;;;;;;;;24.00;59.63;101523.44;3579647;40;19972;-60
2022/08/20 09:05:00;;;;;;;;;;;;;;;23.71;60.26;101532.06;3582023;40;19940;-60
2022/08/20 09:07:31;;;;;;;;;;;;;;;23.62;60.55;101533.88;3585300;40;19943;-59
2022/08/20 09:09:57;;;;;;;;;;;;;;;23.79;61.00;101531.28;3584053;40;19972;-60
2022/08/20 09:12:26;;;;;;;;;;;;;;;24.08;61.54;101528.13;3583059;40;19932;-60
2022/08/20 09:14:53;;;;;;;;;;;;;;;24.31;60.37;101529.22;3583537;40;20003;-60
2022/08/20 09:17:21;;;;;;;;;;;;;;;24.50;58.66;101525.34;3584729;40;20344;-59
2022/08/20 09:19:47;;;;;;;;;;;;;;;24.73;57.37;101531.03;3584628;40;19952;-60
2022/08/20 09:22:17;;;;;;;;;;;;;;;24.38;57.10;101422.22;3586187;40;19931;-60
2022/08/20 09:24:43;;;;;;;;;;;;;;;25.21;54.15;101526.63;3586312;40;20233;-60
2022/08/20 09:27:10;;;;;;;;;;;;;;;25.47;52.78;101529.16;3584917;40;19940;-60
2022/08/20 09:29:36;;;;;;;;;;;;;;;25.66;49.13;101533.41;3584516;40;19980;-60
2022/08/20 09:32:05;;;;;;;;;;;;;;;25.88;51.33;101530.94;3584476;40;20202;-60
2022/08/20 09:34:34;;;;;;;;;;;;;;;25.88;51.62;101522.66;3583494;40;19943;-60
2022/08/20 09:37:00;;;;;;;;;;;;;;;26.04;50.61;101524.50;3585278;40;19947;-61
2022/08/20 09:39:25;;;;;;;;;;;;;;;26.14;51.38;101523.25;3585836;40;19948;-61
2022/08/20 09:41:51;;;;;;;;;;;;;;;26.31;48.76;101520.41;3586911;40;19937;-61
2022/08/20 09:44:16;;;;;;;;;;;;;;;26.48;49.83;101527.56;3585589;40;19946;-61
2022/08/20 09:46:42;;;;;;;;;;;;;;;26.62;48.00;101525.94;3584824;40;20032;-61
2022/08/20 09:49:07;;;;;;;;;;;;;;;26.77;48.36;101523.25;3585791;40;19940;-61
2022/08/20 09:51:33;;;;;;;;;;;;;;;26.53;47.37;101524.25;3584694;40;19942;-62
2022/08/20 09:53:58;;;;;;;;;;;;;;;26.56;46.19;101523.91;3583631;40;19947;-62
2022/08/20 09:56:24;;;;;;;;;;;;;;;26.38;48.16;101530.50;3584587;40;19942;-62
2022/08/20 09:58:53;;;;;;;;;;;;;;;26.35;49.14;101521.75;3586355;40;19944;-62
2022/08/20 10:01:21;;;;;;;;;;;;;;;26.39;46.60;101528.63;3584205;40;20268;-63
2022/08/20 10:03:49;;;;;;;;;;;;;;;26.39;47.72;101525.88;3585343;40;19932;-63
2022/08/20 10:06:19;;;;;;;;;;;;;;;26.66;44.61;101524.50;3588034;40;19944;-62
2022/08/20 10:08:44;;;;;;;;;;;;;;;26.80;46.82;101523.72;3585818;40;20237;-64
2022/08/20 10:11:10;;;;;;;;;;;;;;;26.66;46.42;101469.34;3584432;40;19936;-64
2022/08/20 10:13:36;;;;;;;;;;;;;;;27.04;42.09;101517.13;3584266;40;19990;-64
2022/08/20 10:16:02;;;;;;;;;;;;;;;27.26;40.64;101520.06;3589460;40;19935;-64
2022/08/20 10:18:27;;;;;;;;;;;;;;;27.28;40.19;101518.84;3586417;40;20253;-65
2022/08/20 10:20:53;;;;;;;;;;;;;;;27.37;43.92;101519.63;3585729;40;19944;-65
2022/08/20 10:23:18;;;;;;;;;;;;;;;27.51;43.41;101518.75;3584738;40;19946;-65
2022/08/20 10:25:43;;;;;;;;;;;;;;;27.62;43.11;101524.84;3584385;40;20155;-65
2022/08/20 10:28:09;;;;;;;;;;;;;;;27.47;41.21;101520.19;3585168;40;20372;-65
2022/08/20 10:30:35;;;;;;;;;;;;;;;27.15;41.27;101523.25;3584675;40;19971;-66
2022/08/20 10:33:01;;;;;;;;;;;;;;;27.34;41.80;101520.00;3583899;40;20262;-66
2022/08/20 10:35:27;;;;;;;;;;;;;;;27.40;40.04;101516.44;3589345;39;20001;-66
2022/08/20 10:37:53;;;;;;;;;;;;;;;27.48;41.93;101519.13;3584464;40;20356;-66
2022/08/20 10:40:19;;;;;;;;;;;;;;;27.55;41.37;101509.03;3583888;40;19940;-67
2022/08/20 10:42:45;;;;;;;;;;;;;;;27.77;40.93;101528.50;3585447;40;19932;-66
2022/08/20 10:45:13;;;;;;;;;;;;;;;27.96;42.41;101519.63;3586194;40;19944;-66
2022/08/20 10:47:39;;;;;;;;;;;;;;;28.12;38.69;101529.63;3585586;39;19944;-65
2022/08/20 10:50:11;;;;;;;;;;;;;;;27.82;38.40;101528.81;3585831;40;19936;-66
2022/08/20 10:52:37;;;;;;;;;;;;;;;27.54;38.98;101529.44;3586834;40;19936;-65
2022/08/20 10:55:04;;;;;;;;;;;;;;;27.64;39.78;101511.72;3585117;40;20458;-66
2022/08/20 10:57:32;;;;;;;;;;;;;;;28.02;40.24;101514.41;3586168;40;20359;-65
2022/08/20 10:59:58;;;;;;;;;;;;;;;28.43;39.76;101523.84;3587386;40;19944;-66
2022/08/20 11:02:25;;;;;;;;;;;;;;;28.88;38.32;101515.38;3584366;39;20513;-66
2022/08/20 11:04:52;;;;;;;;;;;;;;;29.13;38.64;101525.00;3585264;40;19948;-66
2022/08/20 11:07:31;;;;;;;;;;;;;;;29.39;37.11;101527.09;3587113;40;20007;-66
2022/08/20 11:09:58;;;;;;;;;;;;;;;29.54;37.11;101531.69;3585839;40;19948;-66
2022/08/20 11:12:24;;;;;;;;;;;;;;;29.62;36.74;101523.22;3582587;40;19947;-65
2022/08/20 11:14:50;;;;;;;;;;;;;;;29.46;35.90;101518.00;3585190;40;19932;-65
2022/08/20 11:17:32;;;;;;;;;;;;;;;29.54;37.85;101526.16;3582841;40;19927;-65
2022/08/20 11:19:59;;;;;;;;;;;;;;;29.77;35.14;101510.09;3585193;39;19964;-66
2022/08/20 11:22:25;;;;;;;;;;;;;;;29.95;35.23;101523.44;3584790;40;20316;-65
2022/08/20 11:24:51;;;;;;;;;;;;;;;29.63;36.00;101519.44;3584491;39;19948;-65
2022/08/20 11:27:26;;;;;;;;;;;;;;;29.04;36.31;101517.88;3583114;40;20534;-66
2022/08/20 11:29:52;;;;;;;;;;;;;;;28.57;36.91;101518.47;3582981;40;20241;-66
2022/08/20 11:32:19;;;;;;;;;;;;;;;28.20;37.56;101517.59;3582204;40;20012;-65
2022/08/20 11:34:45;;;;;;;;;;;;;;;28.09;39.16;101515.31;3583681;40;20232;-66
2022/08/20 11:37:12;;;;;;;;;;;;;;;28.26;38.42;101519.59;3585756;40;19982;-66
2022/08/20 11:39:38;;;;;;;;;;;;;;;28.05;37.38;101525.91;3584987;40;19948;-67
2022/08/20 11:42:04;;;;;;;;;;;;;;;27.77;38.27;101528.50;3585711;40;19936;-65
2022/08/20 11:44:29;;;;;;;;;;;;;;;27.80;39.55;101533.66;3585198;40;19973;-66
2022/08/20 11:47:01;;;;;;;;;;;;;;;27.61;37.71;101528.66;3584841;40;19935;-66
2022/08/20 11:49:27;;;;;;;;;;;;;;;27.37;38.26;101522.38;3584999;40;19936;-65
2022/08/20 11:51:53;;;;;;;;;;;;;;;27.09;40.18;101525.72;3585459;40;20012;-66
2022/08/20 11:54:18;;;;;;;;;;;;;;;26.91;39.07;101521.56;3585810;40;19940;-66
2022/08/20 11:56:44;;;;;;;;;;;;;;;26.80;40.99;101507.16;3587948;40;19956;-66
2022/08/20 11:59:10;;;;;;;;;;;;;;;26.98;41.60;101515.09;3582428;40;20290;-65
2022/08/20 12:01:35;;;;;;;;;;;;;;;27.21;41.54;101517.00;3584275;40;19936;-65
2022/08/20 12:04:01;;;;;;;;;;;;;;;27.34;39.78;101527.38;3584498;40;20150;-65
2022/08/20 12:06:26;;;;;;;;;;;;;;;27.21;38.10;101517.88;3585597;39;20574;-65
2022/08/20 12:08:52;;;;;;;;;;;;;;;27.06;38.30;101515.03;3587094;40;19936;-65
2022/08/20 12:11:17;;;;;;;;;;;;;;;26.87;39.48;101504.53;3583254;40;19940;-65
2022/08/20 12:13:42;;;;;;;;;;;;;;;27.03;36.78;101511.81;3583738;40;19936;-65
2022/08/20 12:16:08;;;;;;;;;;;;;;;27.25;38.37;101512.84;3584045;40;19944;-65
2022/08/20 12:18:34;;;;;;;;;;;;;;;27.16;38.51;101512.06;3585504;40;20258;-65
2022/08/20 12:20:59;;;;;;;;;;;;;;;27.24;39.18;101513.84;3582272;40;19971;-65
2022/08/20 12:23:25;;;;;;;;;;;;;;;27.74;37.47;101518.66;3585205;40;19978;-68
2022/08/20 12:25:50;;;;;;;;;;;;;;;27.54;36.57;101518.38;3585802;40;19936;-65
2022/08/20 12:28:16;;;;;;;;;;;;;;;27.24;37.41;101514.72;3585407;40;20160;-65
2022/08/20 12:30:41;;;;;;;;;;;;;;;27.01;37.81;101511.97;3583881;40;19940;-65
2022/08/20 12:33:07;;;;;;;;;;;;;;;26.84;38.35;101516.78;3584127;39;19944;-65
2022/08/20 12:35:32;;;;;;;;;;;;;;;26.82;38.49;101513.34;3584166;40;19951;-65
2022/08/20 12:38:02;;;;;;;;;;;;;;;27.32;37.78;101511.03;3585504;40;19951;-66
2022/08/20 12:40:29;;;;;;;;;;;;;;;27.33;37.43;101503.59;3584378;40;20350;-65
2022/08/20 12:42:54;;;;;;;;;;;;;;;27.15;37.29;101513.09;3585676;40;19964;-65
2022/08/20 12:45:20;;;;;;;;;;;;;;;26.94;38.49;101511.00;3583970;40;19935;-65
2022/08/20 12:47:46;;;;;;;;;;;;;;;27.05;37.68;101515.22;3585443;40;20274;-65